sensor_id;sensor_type;location;lat;lon;timestamp;temperature;humidity
70726;DHT22;58304;53.104;6.022;2022-09-09T00:04:52;14.30;99.90
70726;DHT22;58304;53.104;6.022;2022-09-09T00:09:59;14.30;99.90
70726;DHT22;58304;53.104;6.022;2022-09-09T00:12:39;14.20;99.90
70726;DHT22;58304;53.104;6.022;2022-09-09T00:15:14;14.30;99.90
70726;DHT22;58304;53.104;6.022;2022-09-09T00:17:58;14.20;99.90
70726;DHT22;58304;53.104;6.022;2022-09-09T00:28:55;14.20;99.90
70726;DHT22;58304;53.104;6.022;2022-09-09T00:31:27;14.20;99.90
70726;DHT22;58304;53.104;6.022;2022-09-09T00:33:55;14.10;99.90
70726;DHT22;58304;53.104;6.022;2022-09-09T00:36:26;14.20;99.90
70726;DHT22;58304;53.104;6.022;2022-09-09T00:39:02;14.10;99.90
70726;DHT22;58304;53.104;6.022;2022-09-09T00:47:49;14.00;99.90
70726;DHT22;58304;53.104;6.022;2022-09-09T00:53:28;13.90;99.90
70726;DHT22;58304;53.104;6.022;2022-09-09T00:56:16;13.80;99.90
70726;DHT22;58304;53.104;6.022;2022-09-09T00:58:53;13.90;99.90
70726;DHT22;58304;53.104;6.022;2022-09-09T01:01:25;13.80;99.90
70726;DHT22;58304;53.104;6.022;2022-09-09T01:03:55;13.90;99.90
70726;DHT22;58304;53.104;6.022;2022-09-09T01:06:30;13.90;99.90
70726;DHT22;58304;53.104;6.022;2022-09-09T01:09:02;13.80;99.90
70726;DHT22;58304;53.104;6.022;2022-09-09T01:11:45;13.80;99.90
70726;DHT22;58304;53.104;6.022;2022-09-09T01:17:08;13.80;99.90
70726;DHT22;58304;53.104;6.022;2022-09-09T01:22:42;13.90;99.90
70726;DHT22;58304;53.104;6.022;2022-09-09T01:27:40;13.90;99.90
70726;DHT22;58304;53.104;6.022;2022-09-09T01:30:11;13.80;99.90
70726;DHT22;58304;53.104;6.022;2022-09-09T01:35:35;13.80;99.90
70726;DHT22;58304;53.104;6.022;2022-09-09T01:38:05;13.80;99.90
70726;DHT22;58304;53.104;6.022;2022-09-09T01:40:31;13.90;99.90
70726;DHT22;58304;53.104;6.022;2022-09-09T01:42:57;13.90;99.90
70726;DHT22;58304;53.104;6.022;2022-09-09T01:45:23;13.90;99.90
70726;DHT22;58304;53.104;6.022;2022-09-09T01:47:51;13.90;99.90
70726;DHT22;58304;53.104;6.022;2022-09-09T01:53:41;13.90;99.90
70726;DHT22;58304;53.104;6.022;2022-09-09T01:56:43;13.90;99.90
70726;DHT22;58304;53.104;6.022;2022-09-09T02:02:16;13.90;99.90
70726;DHT22;58304;53.104;6.022;2022-09-09T02:04:44;13.90;99.90
70726;DHT22;58304;53.104;6.022;2022-09-09T02:07:26;13.90;99.90
70726;DHT22;58304;53.104;6.022;2022-09-09T02:12:39;13.90;99.90
70726;DHT22;58304;53.104;6.022;2022-09-09T02:15:15;13.80;99.90
70726;DHT22;58304;53.104;6.022;2022-09-09T02:17:59;13.80;99.90
70726;DHT22;58304;53.104;6.022;2022-09-09T02:20:26;13.80;99.90
70726;DHT22;58304;53.104;6.022;2022-09-09T02:22:56;13.80;99.90
70726;DHT22;58304;53.104;6.022;2022-09-09T02:25:24;13.90;99.90
70726;DHT22;58304;53.104;6.022;2022-09-09T02:27:51;13.80;99.90
70726;DHT22;58304;53.104;6.022;2022-09-09T02:30:18;13.90;99.90
70726;DHT22;58304;53.104;6.022;2022-09-09T02:32:47;13.90;99.90
70726;DHT22;58304;53.104;6.022;2022-09-09T02:35:19;13.90;99.90
70726;DHT22;58304;53.104;6.022;2022-09-09T02:37:46;13.90;99.90
70726;DHT22;58304;53.104;6.022;2022-09-09T02:40:13;13.90;99.90
70726;DHT22;58304;53.104;6.022;2022-09-09T02:42:45;14.00;99.90
70726;DHT22;58304;53.104;6.022;2022-09-09T02:45:19;14.00;99.90
70726;DHT22;58304;53.104;6.022;2022-09-09T02:48:09;13.90;99.90
70726;DHT22;58304;53.104;6.022;2022-09-09T02:51:04;14.00;99.90
70726;DHT22;58304;53.104;6.022;2022-09-09T02:53:50;14.10;99.90
70726;DHT22;58304;53.104;6.022;2022-09-09T02:56:27;14.10;99.90
70726;DHT22;58304;53.104;6.022;2022-09-09T02:59:03;14.10;99.90
70726;DHT22;58304;53.104;6.022;2022-09-09T03:01:30;14.00;99.90
70726;DHT22;58304;53.104;6.022;2022-09-09T03:03:55;14.00;99.90
70726;DHT22;58304;53.104;6.022;2022-09-09T03:06:21;14.00;99.90
70726;DHT22;58304;53.104;6.022;2022-09-09T03:08:47;14.00;99.90
70726;DHT22;58304;53.104;6.022;2022-09-09T03:11:24;14.10;99.90
70726;DHT22;58304;53.104;6.022;2022-09-09T03:13:50;14.10;99.90
70726;DHT22;58304;53.104;6.022;2022-09-09T03:16:21;14.00;99.90
70726;DHT22;58304;53.104;6.022;2022-09-09T03:18:50;14.00;99.90
70726;DHT22;58304;53.104;6.022;2022-09-09T03:21:21;14.00;99.90
70726;DHT22;58304;53.104;6.022;2022-09-09T03:23:46;13.90;99.90
70726;DHT22;58304;53.104;6.022;2022-09-09T03:26:16;14.00;99.90
70726;DHT22;58304;53.104;6.022;2022-09-09T03:28:43;14.00;99.90
70726;DHT22;58304;53.104;6.022;2022-09-09T03:31:18;14.00;99.90
70726;DHT22;58304;53.104;6.022;2022-09-09T03:33:52;14.00;99.90
70726;DHT22;58304;53.104;6.022;2022-09-09T03:36:25;14.10;99.90
70726;DHT22;58304;53.104;6.022;2022-09-09T03:39:03;14.00;99.90
70726;DHT22;58304;53.104;6.022;2022-09-09T03:41:30;14.00;99.90
70726;DHT22;58304;53.104;6.022;2022-09-09T03:44:02;14.00;99.90
70726;DHT22;58304;53.104;6.022;2022-09-09T03:46:33;14.00;99.90
70726;DHT22;58304;53.104;6.022;2022-09-09T03:49:03;14.00;99.90
70726;DHT22;58304;53.104;6.022;2022-09-09T03:51:34;14.00;99.90
70726;DHT22;58304;53.104;6.022;2022-09-09T03:54:04;14.00;99.90
70726;DHT22;58304;53.104;6.022;2022-09-09T03:56:33;14.00;99.90
70726;DHT22;58304;53.104;6.022;2022-09-09T03:59:04;14.00;99.90
70726;DHT22;58304;53.104;6.022;2022-09-09T04:01:35;14.00;99.90
70726;DHT22;58304;53.104;6.022;2022-09-09T04:04:04;14.00;99.90
70726;DHT22;58304;53.104;6.022;2022-09-09T04:06:32;14.00;99.90
70726;DHT22;58304;53.104;6.022;2022-09-09T04:08:57;14.00;99.90
70726;DHT22;58304;53.104;6.022;2022-09-09T04:11:28;14.00;99.90
70726;DHT22;58304;53.104;6.022;2022-09-09T04:13:54;14.00;99.90
70726;DHT22;58304;53.104;6.022;2022-09-09T04:16:19;14.00;99.90
70726;DHT22;58304;53.104;6.022;2022-09-09T04:18:45;14.00;99.90
70726;DHT22;58304;53.104;6.022;2022-09-09T04:21:19;14.00;99.90
70726;DHT22;58304;53.104;6.022;2022-09-09T04:23:46;14.00;99.90
70726;DHT22;58304;53.104;6.022;2022-09-09T04:26:16;14.00;99.90
70726;DHT22;58304;53.104;6.022;2022-09-09T04:28:43;14.00;99.90
70726;DHT22;58304;53.104;6.022;2022-09-09T04:31:16;14.10;99.90
70726;DHT22;58304;53.104;6.022;2022-09-09T04:33:45;14.10;99.90
70726;DHT22;58304;53.104;6.022;2022-09-09T04:36:12;14.10;99.90
70726;DHT22;58304;53.104;6.022;2022-09-09T04:38:38;14.10;99.90
70726;DHT22;58304;53.104;6.022;2022-09-09T04:41:08;14.10;99.90
70726;DHT22;58304;53.104;6.022;2022-09-09T04:43:36;14.10;99.90
70726;DHT22;58304;53.104;6.022;2022-09-09T04:46:04;14.10;99.90
70726;DHT22;58304;53.104;6.022;2022-09-09T04:48:31;14.20;99.90
70726;DHT22;58304;53.104;6.022;2022-09-09T04:51:02;14.20;99.90
70726;DHT22;58304;53.104;6.022;2022-09-09T04:53:34;14.10;99.90
70726;DHT22;58304;53.104;6.022;2022-09-09T04:56:04;14.20;99.90
70726;DHT22;58304;53.104;6.022;2022-09-09T04:58:31;14.20;99.90
70726;DHT22;58304;53.104;6.022;2022-09-09T05:01:13;14.20;99.90
70726;DHT22;58304;53.104;6.022;2022-09-09T05:03:40;14.20;99.90
70726;DHT22;58304;53.104;6.022;2022-09-09T05:06:12;14.20;99.90
70726;DHT22;58304;53.104;6.022;2022-09-09T05:08:42;14.20;99.90
70726;DHT22;58304;53.104;6.022;2022-09-09T05:11:25;14.20;99.90
70726;DHT22;58304;53.104;6.022;2022-09-09T05:13:56;14.20;99.90
70726;DHT22;58304;53.104;6.022;2022-09-09T05:16:22;14.20;99.90
70726;DHT22;58304;53.104;6.022;2022-09-09T05:18:49;14.20;99.90
70726;DHT22;58304;53.104;6.022;2022-09-09T05:21:17;14.20;99.90
70726;DHT22;58304;53.104;6.022;2022-09-09T05:23:44;14.20;99.90
70726;DHT22;58304;53.104;6.022;2022-09-09T05:26:20;14.10;99.90
70726;DHT22;58304;53.104;6.022;2022-09-09T05:28:46;14.20;99.90
70726;DHT22;58304;53.104;6.022;2022-09-09T05:31:13;14.20;99.90
70726;DHT22;58304;53.104;6.022;2022-09-09T05:34:05;14.30;99.90
70726;DHT22;58304;53.104;6.022;2022-09-09T05:36:35;14.30;99.90
70726;DHT22;58304;53.104;6.022;2022-09-09T05:39:03;14.30;99.90
70726;DHT22;58304;53.104;6.022;2022-09-09T05:41:29;14.30;99.90
70726;DHT22;58304;53.104;6.022;2022-09-09T05:43:59;14.30;99.90
70726;DHT22;58304;53.104;6.022;2022-09-09T05:46:26;14.40;99.90
70726;DHT22;58304;53.104;6.022;2022-09-09T05:48:54;14.30;99.90
70726;DHT22;58304;53.104;6.022;2022-09-09T05:51:24;14.30;99.90
70726;DHT22;58304;53.104;6.022;2022-09-09T05:53:50;14.40;99.90
70726;DHT22;58304;53.104;6.022;2022-09-09T05:56:18;14.40;99.90
70726;DHT22;58304;53.104;6.022;2022-09-09T05:58:44;14.40;99.90
70726;DHT22;58304;53.104;6.022;2022-09-09T06:01:14;14.40;99.90
70726;DHT22;58304;53.104;6.022;2022-09-09T06:03:42;14.50;99.90
70726;DHT22;58304;53.104;6.022;2022-09-09T06:06:12;14.50;99.90
70726;DHT22;58304;53.104;6.022;2022-09-09T06:08:40;14.50;99.90
70726;DHT22;58304;53.104;6.022;2022-09-09T06:11:16;14.50;99.90
70726;DHT22;58304;53.104;6.022;2022-09-09T06:13:43;14.60;99.90
70726;DHT22;58304;53.104;6.022;2022-09-09T06:16:10;14.50;99.90
70726;DHT22;58304;53.104;6.022;2022-09-09T06:18:40;14.60;99.90
70726;DHT22;58304;53.104;6.022;2022-09-09T06:21:16;14.60;99.90
70726;DHT22;58304;53.104;6.022;2022-09-09T06:23:42;14.60;99.90
70726;DHT22;58304;53.104;6.022;2022-09-09T06:26:11;14.60;99.90
70726;DHT22;58304;53.104;6.022;2022-09-09T06:28:37;14.60;99.90
70726;DHT22;58304;53.104;6.022;2022-09-09T06:31:09;14.50;99.90
70726;DHT22;58304;53.104;6.022;2022-09-09T06:33:39;14.60;99.90
70726;DHT22;58304;53.104;6.022;2022-09-09T06:36:37;14.60;99.90
70726;DHT22;58304;53.104;6.022;2022-09-09T06:39:12;14.50;99.90
70726;DHT22;58304;53.104;6.022;2022-09-09T06:41:44;14.60;99.90
70726;DHT22;58304;53.104;6.022;2022-09-09T06:44:10;14.60;99.90
70726;DHT22;58304;53.104;6.022;2022-09-09T06:46:39;14.60;99.90
70726;DHT22;58304;53.104;6.022;2022-09-09T06:49:05;14.60;99.90
70726;DHT22;58304;53.104;6.022;2022-09-09T06:51:35;14.70;99.90
70726;DHT22;58304;53.104;6.022;2022-09-09T06:54:03;14.70;99.90
70726;DHT22;58304;53.104;6.022;2022-09-09T06:59:11;14.70;99.90
70726;DHT22;58304;53.104;6.022;2022-09-09T07:01:39;14.80;99.90
70726;DHT22;58304;53.104;6.022;2022-09-09T07:04:10;14.90;99.90
70726;DHT22;58304;53.104;6.022;2022-09-09T07:06:41;14.90;99.90
70726;DHT22;58304;53.104;6.022;2022-09-09T07:12:21;15.00;99.90
70726;DHT22;58304;53.104;6.022;2022-09-09T07:15:00;15.10;99.90
70726;DHT22;58304;53.104;6.022;2022-09-09T07:17:27;15.30;99.90
70726;DHT22;58304;53.104;6.022;2022-09-09T07:19:54;15.60;99.90
70726;DHT22;58304;53.104;6.022;2022-09-09T07:22:22;16.30;99.90
70726;DHT22;58304;53.104;6.022;2022-09-09T07:24:48;16.60;99.90
70726;DHT22;58304;53.104;6.022;2022-09-09T07:27:15;16.90;99.90
70726;DHT22;58304;53.104;6.022;2022-09-09T07:29:40;17.10;99.90
70726;DHT22;58304;53.104;6.022;2022-09-09T07:37:19;18.00;99.90
70726;DHT22;58304;53.104;6.022;2022-09-09T07:39:45;18.00;99.90
70726;DHT22;58304;53.104;6.022;2022-09-09T07:42:10;17.80;99.90
70726;DHT22;58304;53.104;6.022;2022-09-09T07:44:37;18.00;99.90
70726;DHT22;58304;53.104;6.022;2022-09-09T07:47:05;18.70;99.90
70726;DHT22;58304;53.104;6.022;2022-09-09T07:49:30;19.40;99.90
70726;DHT22;58304;53.104;6.022;2022-09-09T07:51:57;19.80;99.90
70726;DHT22;58304;53.104;6.022;2022-09-09T07:54:23;19.80;99.90
70726;DHT22;58304;53.104;6.022;2022-09-09T07:56:49;20.20;99.90
70726;DHT22;58304;53.104;6.022;2022-09-09T07:59:15;19.90;99.90
70726;DHT22;58304;53.104;6.022;2022-09-09T08:01:44;21.50;99.90
70726;DHT22;58304;53.104;6.022;2022-09-09T08:04:13;22.50;99.90
70726;DHT22;58304;53.104;6.022;2022-09-09T08:06:45;23.70;99.90
70726;DHT22;58304;53.104;6.022;2022-09-09T08:09:11;24.50;99.90
70726;DHT22;58304;53.104;6.022;2022-09-09T08:11:38;24.30;99.90
70726;DHT22;58304;53.104;6.022;2022-09-09T08:14:05;24.00;99.90
70726;DHT22;58304;53.104;6.022;2022-09-09T08:16:34;24.50;99.90
70726;DHT22;58304;53.104;6.022;2022-09-09T08:19:03;25.10;99.90
70726;DHT22;58304;53.104;6.022;2022-09-09T08:21:31;25.10;99.90
70726;DHT22;58304;53.104;6.022;2022-09-09T08:23:59;24.20;99.90
70726;DHT22;58304;53.104;6.022;2022-09-09T08:29:02;24.60;99.90
70726;DHT22;58304;53.104;6.022;2022-09-09T08:31:35;24.10;99.90
70726;DHT22;58304;53.104;6.022;2022-09-09T08:34:05;23.30;99.90
70726;DHT22;58304;53.104;6.022;2022-09-09T08:36:34;23.20;99.90
70726;DHT22;58304;53.104;6.022;2022-09-09T08:39:03;22.90;99.90
70726;DHT22;58304;53.104;6.022;2022-09-09T08:44:41;22.90;99.90
70726;DHT22;58304;53.104;6.022;2022-09-09T08:47:15;23.00;99.90
70726;DHT22;58304;53.104;6.022;2022-09-09T08:50:02;24.20;99.90
70726;DHT22;58304;53.104;6.022;2022-09-09T08:55:42;23.20;99.90
70726;DHT22;58304;53.104;6.022;2022-09-09T08:58:26;23.30;99.90
70726;DHT22;58304;53.104;6.022;2022-09-09T09:15:18;24.50;99.90
70726;DHT22;58304;53.104;6.022;2022-09-09T09:39:42;22.30;99.90
70726;DHT22;58304;53.104;6.022;2022-09-09T09:42:29;22.00;99.90
70726;DHT22;58304;53.104;6.022;2022-09-09T10:06:29;22.60;99.90
70726;DHT22;58304;53.104;6.022;2022-09-09T10:24:32;21.80;99.90
70726;DHT22;58304;53.104;6.022;2022-09-09T10:27:42;21.80;99.90
70726;DHT22;58304;53.104;6.022;2022-09-09T10:30:24;21.70;99.90
70726;DHT22;58304;53.104;6.022;2022-09-09T10:36:22;22.90;99.90
70726;DHT22;58304;53.104;6.022;2022-09-09T10:39:29;23.50;99.90
70726;DHT22;58304;53.104;6.022;2022-09-09T10:42:14;24.20;99.90
70726;DHT22;58304;53.104;6.022;2022-09-09T10:44:59;25.10;99.90
70726;DHT22;58304;53.104;6.022;2022-09-09T10:47:44;25.00;99.90
70726;DHT22;58304;53.104;6.022;2022-09-09T10:50:44;24.30;99.90
70726;DHT22;58304;53.104;6.022;2022-09-09T10:53:43;23.50;99.90
70726;DHT22;58304;53.104;6.022;2022-09-09T10:56:16;23.00;99.90
70726;DHT22;58304;53.104;6.022;2022-09-09T10:58:50;22.80;99.90
70726;DHT22;58304;53.104;6.022;2022-09-09T11:01:26;23.00;99.90
70726;DHT22;58304;53.104;6.022;2022-09-09T11:04:04;23.80;99.90
70726;DHT22;58304;53.104;6.022;2022-09-09T11:06:40;23.90;99.90
70726;DHT22;58304;53.104;6.022;2022-09-09T11:09:15;24.00;99.90
70726;DHT22;58304;53.104;6.022;2022-09-09T11:11:51;24.20;99.90
70726;DHT22;58304;53.104;6.022;2022-09-09T11:14:32;23.80;99.90
70726;DHT22;58304;53.104;6.022;2022-09-09T11:17:10;23.60;99.90
70726;DHT22;58304;53.104;6.022;2022-09-09T11:19:42;23.50;99.90
70726;DHT22;58304;53.104;6.022;2022-09-09T11:22:35;23.50;99.90
70726;DHT22;58304;53.104;6.022;2022-09-09T11:25:23;23.80;99.90
70726;DHT22;58304;53.104;6.022;2022-09-09T11:36:38;23.90;99.90
70726;DHT22;58304;53.104;6.022;2022-09-09T11:44:40;23.00;99.90
70726;DHT22;58304;53.104;6.022;2022-09-09T11:47:24;22.90;99.90
70726;DHT22;58304;53.104;6.022;2022-09-09T11:52:42;22.70;99.90
70726;DHT22;58304;53.104;6.022;2022-09-09T11:55:27;23.20;99.90
70726;DHT22;58304;53.104;6.022;2022-09-09T12:00:37;23.60;99.90
70726;DHT22;58304;53.104;6.022;2022-09-09T12:03:04;23.40;99.90
70726;DHT22;58304;53.104;6.022;2022-09-09T12:05:42;23.00;99.90
70726;DHT22;58304;53.104;6.022;2022-09-09T12:08:11;22.80;99.90
70726;DHT22;58304;53.104;6.022;2022-09-09T12:10:56;22.60;99.90
70726;DHT22;58304;53.104;6.022;2022-09-09T12:13:32;22.30;99.90
70726;DHT22;58304;53.104;6.022;2022-09-09T12:16:00;22.00;99.90
70726;DHT22;58304;53.104;6.022;2022-09-09T12:18:38;21.90;99.90
70726;DHT22;58304;53.104;6.022;2022-09-09T12:21:40;22.30;99.90
70726;DHT22;58304;53.104;6.022;2022-09-09T12:24:30;22.60;99.90
70726;DHT22;58304;53.104;6.022;2022-09-09T12:27:28;22.60;99.90
70726;DHT22;58304;53.104;6.022;2022-09-09T12:30:14;22.80;99.90
70726;DHT22;58304;53.104;6.022;2022-09-09T12:32:41;21.90;99.90
70726;DHT22;58304;53.104;6.022;2022-09-09T12:38:37;21.40;99.90
70726;DHT22;58304;53.104;6.022;2022-09-09T12:41:05;21.50;99.90
70726;DHT22;58304;53.104;6.022;2022-09-09T12:43:32;21.60;99.90
70726;DHT22;58304;53.104;6.022;2022-09-09T12:46:03;22.00;99.90
70726;DHT22;58304;53.104;6.022;2022-09-09T12:48:41;22.00;99.90
70726;DHT22;58304;53.104;6.022;2022-09-09T12:51:24;22.40;99.90
70726;DHT22;58304;53.104;6.022;2022-09-09T12:54:14;22.50;99.90
70726;DHT22;58304;53.104;6.022;2022-09-09T12:56:46;22.90;99.90
70726;DHT22;58304;53.104;6.022;2022-09-09T12:59:27;23.50;99.90
70726;DHT22;58304;53.104;6.022;2022-09-09T13:02:01;23.70;99.90
70726;DHT22;58304;53.104;6.022;2022-09-09T13:04:27;23.50;99.90
70726;DHT22;58304;53.104;6.022;2022-09-09T13:07:05;23.20;99.90
70726;DHT22;58304;53.104;6.022;2022-09-09T13:09:32;23.20;99.90
70726;DHT22;58304;53.104;6.022;2022-09-09T13:11:58;23.30;99.90
70726;DHT22;58304;53.104;6.022;2022-09-09T13:14:34;23.70;99.90
70726;DHT22;58304;53.104;6.022;2022-09-09T13:17:05;23.90;99.90
70726;DHT22;58304;53.104;6.022;2022-09-09T13:19:39;24.00;99.90
70726;DHT22;58304;53.104;6.022;2022-09-09T13:22:42;23.90;99.90
70726;DHT22;58304;53.104;6.022;2022-09-09T13:25:20;24.60;99.90
70726;DHT22;58304;53.104;6.022;2022-09-09T13:28:00;24.50;99.90
70726;DHT22;58304;53.104;6.022;2022-09-09T13:30:37;24.60;99.90
70726;DHT22;58304;53.104;6.022;2022-09-09T13:36:12;23.20;99.90
70726;DHT22;58304;53.104;6.022;2022-09-09T13:38:59;23.30;99.90
70726;DHT22;58304;53.104;6.022;2022-09-09T13:41:42;23.10;99.90
70726;DHT22;58304;53.104;6.022;2022-09-09T13:44:29;22.90;99.90
70726;DHT22;58304;53.104;6.022;2022-09-09T13:47:17;21.90;99.90
70726;DHT22;58304;53.104;6.022;2022-09-09T13:49:47;21.60;99.90
70726;DHT22;58304;53.104;6.022;2022-09-09T13:52:17;22.00;99.90
70726;DHT22;58304;53.104;6.022;2022-09-09T13:54:52;21.90;99.90
70726;DHT22;58304;53.104;6.022;2022-09-09T13:57:24;22.10;99.90
70726;DHT22;58304;53.104;6.022;2022-09-09T13:59:51;22.50;99.90
70726;DHT22;58304;53.104;6.022;2022-09-09T14:02:18;22.80;99.90
70726;DHT22;58304;53.104;6.022;2022-09-09T14:04:51;23.20;99.90
70726;DHT22;58304;53.104;6.022;2022-09-09T14:07:20;23.60;99.90
70726;DHT22;58304;53.104;6.022;2022-09-09T14:09:51;23.90;99.90
70726;DHT22;58304;53.104;6.022;2022-09-09T14:12:19;24.40;99.90
70726;DHT22;58304;53.104;6.022;2022-09-09T14:14:46;24.50;99.90
70726;DHT22;58304;53.104;6.022;2022-09-09T14:17:12;24.80;99.90
70726;DHT22;58304;53.104;6.022;2022-09-09T14:19:39;24.60;99.90
70726;DHT22;58304;53.104;6.022;2022-09-09T14:22:04;24.00;99.90
70726;DHT22;58304;53.104;6.022;2022-09-09T14:24:30;23.00;99.90
70726;DHT22;58304;53.104;6.022;2022-09-09T14:26:56;22.80;99.90
70726;DHT22;58304;53.104;6.022;2022-09-09T14:29:22;23.20;99.90
70726;DHT22;58304;53.104;6.022;2022-09-09T14:31:47;23.10;99.90
70726;DHT22;58304;53.104;6.022;2022-09-09T14:34:13;23.20;99.90
70726;DHT22;58304;53.104;6.022;2022-09-09T14:36:41;23.40;99.90
70726;DHT22;58304;53.104;6.022;2022-09-09T14:39:07;23.20;99.90
70726;DHT22;58304;53.104;6.022;2022-09-09T14:41:33;23.10;99.90
70726;DHT22;58304;53.104;6.022;2022-09-09T14:43:59;23.20;99.90
70726;DHT22;58304;53.104;6.022;2022-09-09T14:46:25;23.40;99.90
70726;DHT22;58304;53.104;6.022;2022-09-09T14:48:52;23.40;99.90
70726;DHT22;58304;53.104;6.022;2022-09-09T14:51:20;23.50;99.90
70726;DHT22;58304;53.104;6.022;2022-09-09T14:53:48;23.60;99.90
70726;DHT22;58304;53.104;6.022;2022-09-09T14:56:17;23.40;99.90
70726;DHT22;58304;53.104;6.022;2022-09-09T14:58:44;23.30;99.90
70726;DHT22;58304;53.104;6.022;2022-09-09T15:01:15;23.00;99.90
70726;DHT22;58304;53.104;6.022;2022-09-09T15:03:42;22.80;99.90
70726;DHT22;58304;53.104;6.022;2022-09-09T15:06:10;22.70;99.90
70726;DHT22;58304;53.104;6.022;2022-09-09T15:08:38;22.60;99.90
70726;DHT22;58304;53.104;6.022;2022-09-09T15:11:05;22.30;99.90
70726;DHT22;58304;53.104;6.022;2022-09-09T15:13:33;22.10;99.90
70726;DHT22;58304;53.104;6.022;2022-09-09T15:16:09;21.80;99.90
70726;DHT22;58304;53.104;6.022;2022-09-09T15:18:35;21.80;99.90
70726;DHT22;58304;53.104;6.022;2022-09-09T15:21:08;21.50;99.90
70726;DHT22;58304;53.104;6.022;2022-09-09T15:23:35;21.10;99.90
70726;DHT22;58304;53.104;6.022;2022-09-09T15:26:01;21.10;99.90
70726;DHT22;58304;53.104;6.022;2022-09-09T15:28:27;20.60;99.90
70726;DHT22;58304;53.104;6.022;2022-09-09T15:30:53;20.00;99.90
70726;DHT22;58304;53.104;6.022;2022-09-09T15:33:21;19.70;99.90
70726;DHT22;58304;53.104;6.022;2022-09-09T15:35:49;19.30;99.90
70726;DHT22;58304;53.104;6.022;2022-09-09T15:38:17;19.20;99.90
70726;DHT22;58304;53.104;6.022;2022-09-09T15:40:43;18.90;99.90
70726;DHT22;58304;53.104;6.022;2022-09-09T15:43:09;18.80;99.90
70726;DHT22;58304;53.104;6.022;2022-09-09T15:45:36;18.70;99.90
70726;DHT22;58304;53.104;6.022;2022-09-09T15:48:04;18.60;99.90
70726;DHT22;58304;53.104;6.022;2022-09-09T15:50:29;18.70;99.90
70726;DHT22;58304;53.104;6.022;2022-09-09T15:52:59;18.60;99.90
70726;DHT22;58304;53.104;6.022;2022-09-09T15:55:24;18.50;99.90
70726;DHT22;58304;53.104;6.022;2022-09-09T15:57:50;18.60;99.90
70726;DHT22;58304;53.104;6.022;2022-09-09T16:00:19;18.60;99.90
70726;DHT22;58304;53.104;6.022;2022-09-09T16:02:46;18.60;99.90
70726;DHT22;58304;53.104;6.022;2022-09-09T16:05:12;18.60;99.90
70726;DHT22;58304;53.104;6.022;2022-09-09T16:07:38;18.50;99.90
70726;DHT22;58304;53.104;6.022;2022-09-09T16:10:04;18.50;99.90
70726;DHT22;58304;53.104;6.022;2022-09-09T16:12:31;18.50;99.90
70726;DHT22;58304;53.104;6.022;2022-09-09T16:14:57;18.40;99.90
70726;DHT22;58304;53.104;6.022;2022-09-09T16:17:22;18.40;99.90
70726;DHT22;58304;53.104;6.022;2022-09-09T16:19:48;18.30;99.90
70726;DHT22;58304;53.104;6.022;2022-09-09T16:22:13;18.30;99.90
70726;DHT22;58304;53.104;6.022;2022-09-09T16:24:40;18.30;99.90
70726;DHT22;58304;53.104;6.022;2022-09-09T16:27:06;18.30;99.90
70726;DHT22;58304;53.104;6.022;2022-09-09T16:29:32;18.30;99.90
70726;DHT22;58304;53.104;6.022;2022-09-09T16:31:58;18.30;99.90
70726;DHT22;58304;53.104;6.022;2022-09-09T16:34:25;18.40;99.90
70726;DHT22;58304;53.104;6.022;2022-09-09T16:36:51;18.30;99.90
70726;DHT22;58304;53.104;6.022;2022-09-09T16:39:20;18.30;99.90
70726;DHT22;58304;53.104;6.022;2022-09-09T16:41:47;18.30;99.90
70726;DHT22;58304;53.104;6.022;2022-09-09T16:44:15;18.30;99.90
70726;DHT22;58304;53.104;6.022;2022-09-09T16:46:43;18.20;99.90
70726;DHT22;58304;53.104;6.022;2022-09-09T16:49:14;18.30;99.90
70726;DHT22;58304;53.104;6.022;2022-09-09T16:51:46;18.20;99.90
70726;DHT22;58304;53.104;6.022;2022-09-09T16:54:13;18.30;99.90
70726;DHT22;58304;53.104;6.022;2022-09-09T16:56:41;18.30;99.90
70726;DHT22;58304;53.104;6.022;2022-09-09T16:59:18;18.30;99.90
70726;DHT22;58304;53.104;6.022;2022-09-09T17:01:46;18.30;99.90
70726;DHT22;58304;53.104;6.022;2022-09-09T17:04:17;18.30;99.90
70726;DHT22;58304;53.104;6.022;2022-09-09T17:06:47;18.20;99.90
70726;DHT22;58304;53.104;6.022;2022-09-09T17:09:15;18.30;99.90
70726;DHT22;58304;53.104;6.022;2022-09-09T17:11:41;18.30;99.90
70726;DHT22;58304;53.104;6.022;2022-09-09T17:14:10;18.30;99.90
70726;DHT22;58304;53.104;6.022;2022-09-09T17:16:37;18.30;99.90
70726;DHT22;58304;53.104;6.022;2022-09-09T17:19:05;18.30;99.90
70726;DHT22;58304;53.104;6.022;2022-09-09T17:21:32;18.30;99.90
70726;DHT22;58304;53.104;6.022;2022-09-09T17:23:58;18.30;99.90
70726;DHT22;58304;53.104;6.022;2022-09-09T17:26:26;18.20;99.90
70726;DHT22;58304;53.104;6.022;2022-09-09T17:28:53;18.20;99.90
70726;DHT22;58304;53.104;6.022;2022-09-09T17:31:20;18.20;99.90
70726;DHT22;58304;53.104;6.022;2022-09-09T17:33:47;18.10;99.90
70726;DHT22;58304;53.104;6.022;2022-09-09T17:36:19;18.00;99.90
70726;DHT22;58304;53.104;6.022;2022-09-09T17:38:47;18.00;99.90
70726;DHT22;58304;53.104;6.022;2022-09-09T17:41:23;17.90;99.90
70726;DHT22;58304;53.104;6.022;2022-09-09T17:43:49;17.90;99.90
70726;DHT22;58304;53.104;6.022;2022-09-09T17:46:18;17.80;99.90
70726;DHT22;58304;53.104;6.022;2022-09-09T17:48:45;17.80;99.90
70726;DHT22;58304;53.104;6.022;2022-09-09T17:51:13;17.70;99.90
70726;DHT22;58304;53.104;6.022;2022-09-09T17:53:42;17.70;99.90
70726;DHT22;58304;53.104;6.022;2022-09-09T17:56:10;17.70;99.90
70726;DHT22;58304;53.104;6.022;2022-09-09T17:58:36;17.60;99.90
70726;DHT22;58304;53.104;6.022;2022-09-09T18:01:14;17.50;99.90
70726;DHT22;58304;53.104;6.022;2022-09-09T18:03:41;17.50;99.90
70726;DHT22;58304;53.104;6.022;2022-09-09T18:06:09;17.50;99.90
70726;DHT22;58304;53.104;6.022;2022-09-09T18:08:36;17.50;99.90
70726;DHT22;58304;53.104;6.022;2022-09-09T18:11:02;17.40;99.90
70726;DHT22;58304;53.104;6.022;2022-09-09T18:13:28;17.40;99.90
70726;DHT22;58304;53.104;6.022;2022-09-09T18:15:57;17.30;99.90
70726;DHT22;58304;53.104;6.022;2022-09-09T18:18:23;17.40;99.90
70726;DHT22;58304;53.104;6.022;2022-09-09T18:21:05;17.30;99.90
70726;DHT22;58304;53.104;6.022;2022-09-09T18:23:39;17.30;99.90
70726;DHT22;58304;53.104;6.022;2022-09-09T18:26:12;17.30;99.90
70726;DHT22;58304;53.104;6.022;2022-09-09T18:28:40;17.20;99.90
70726;DHT22;58304;53.104;6.022;2022-09-09T18:31:11;17.30;99.90
70726;DHT22;58304;53.104;6.022;2022-09-09T18:33:40;17.30;99.90
70726;DHT22;58304;53.104;6.022;2022-09-09T18:36:17;17.30;99.90
70726;DHT22;58304;53.104;6.022;2022-09-09T18:38:43;17.30;99.90
70726;DHT22;58304;53.104;6.022;2022-09-09T18:41:19;17.30;99.90
70726;DHT22;58304;53.104;6.022;2022-09-09T18:43:54;17.20;99.90